createdAt,value
2018-09-06T00:02:56.514Z,12.73
2018-09-06T00:06:01.346Z,12.43
2018-09-06T00:09:07.667Z,12.73
2018-09-06T00:12:11.783Z,13.77
2018-09-06T00:15:16.166Z,12.77
2018-09-06T00:18:20.334Z,12.67
2018-09-06T00:21:24.661Z,13.10
2018-09-06T00:24:28.994Z,14.07
2018-09-06T00:27:34.586Z,13.20
2018-09-06T00:30:39.046Z,13.97
2018-09-06T00:33:43.511Z,12.27
2018-09-06T00:36:48.640Z,14.97
2018-09-06T00:39:52.873Z,13.03
2018-09-06T00:42:57.180Z,11.67
2018-09-06T00:46:01.507Z,12.47
2018-09-06T00:49:05.861Z,12.83
2018-09-06T00:52:10.157Z,12.77
2018-09-06T00:55:14.268Z,12.70
2018-09-06T00:58:18.691Z,13.03
2018-09-06T01:01:23.265Z,12.73
2018-09-06T01:04:27.580Z,12.20
2018-09-06T01:07:32.103Z,12.57
2018-09-06T01:10:37.175Z,13.03
2018-09-06T01:13:41.666Z,12.43
2018-09-06T01:16:46.606Z,12.13
2018-09-06T01:19:50.968Z,11.87
2018-09-06T01:22:55.055Z,12.70
2018-09-06T01:25:59.340Z,12.50
2018-09-06T01:29:03.791Z,12.37
2018-09-06T01:32:08.000Z,12.53
2018-09-06T01:35:12.257Z,12.23
2018-09-06T01:38:16.658Z,12.63
2018-09-06T01:41:20.940Z,13.37
2018-09-06T01:44:25.680Z,12.47
2018-09-06T01:47:30.126Z,12.77
2018-09-06T01:50:34.782Z,12.37
2018-09-06T01:53:39.097Z,12.30
2018-09-06T01:56:43.426Z,12.60
2018-09-06T01:59:47.798Z,14.57
2018-09-06T02:02:52.159Z,14.50
2018-09-06T02:05:56.467Z,14.87
2018-09-06T02:09:00.911Z,14.70
2018-09-06T02:12:05.240Z,12.63
2018-09-06T02:15:09.565Z,12.97
2018-09-06T02:18:13.875Z,13.70
2018-09-06T02:21:18.051Z,12.47
2018-09-06T02:24:22.422Z,14.37
2018-09-06T02:27:26.677Z,12.77
2018-09-06T02:30:31.134Z,13.13
2018-09-06T02:33:35.229Z,12.83
2018-09-06T02:36:39.685Z,13.83
2018-09-06T02:39:44.100Z,15.10
2018-09-06T02:42:48.529Z,14.33
2018-09-06T02:45:52.841Z,15.73
2018-09-06T02:48:57.335Z,14.33
2018-09-06T02:52:01.593Z,13.20
2018-09-06T02:55:05.933Z,12.97
2018-09-06T02:58:10.283Z,12.00
2018-09-06T03:01:14.636Z,12.37
2018-09-06T03:04:19.000Z,13.40
2018-09-06T03:07:23.350Z,12.93
2018-09-06T03:10:30.990Z,13.73
2018-09-06T03:13:35.406Z,12.73
2018-09-06T03:16:40.225Z,12.83
2018-09-06T03:19:44.450Z,13.53
2018-09-06T03:22:48.809Z,13.60
2018-09-06T03:25:53.294Z,11.90
2018-09-06T03:28:57.573Z,12.20
2018-09-06T03:32:02.265Z,12.30
2018-09-06T03:35:06.479Z,12.27
2018-09-06T03:38:10.807Z,12.13
2018-09-06T03:41:15.079Z,13.90
2018-09-06T03:44:19.375Z,12.93
2018-09-06T03:47:23.540Z,13.60
2018-09-06T03:50:34.549Z,12.17
2018-09-06T03:53:39.028Z,13.23
2018-09-06T03:56:43.379Z,12.80
2018-09-06T03:59:47.820Z,12.40
2018-09-06T04:02:52.320Z,13.17
2018-09-06T04:05:56.606Z,12.10
2018-09-06T04:09:00.808Z,14.63
2018-09-06T04:12:04.997Z,16.80
2018-09-06T04:15:09.299Z,14.10
2018-09-06T04:18:13.742Z,13.80
2018-09-06T04:21:18.132Z,15.23
2018-09-06T04:24:22.496Z,12.97
2018-09-06T04:27:26.662Z,12.60
2018-09-06T04:30:31.235Z,12.10
2018-09-06T04:33:35.801Z,12.63
2018-09-06T04:36:40.142Z,14.43
2018-09-06T04:39:44.569Z,12.80
2018-09-06T04:42:48.883Z,13.13
2018-09-06T04:45:53.204Z,12.50
2018-09-06T04:48:57.374Z,12.53
2018-09-06T04:52:01.543Z,12.57
2018-09-06T04:55:06.000Z,12.30
2018-09-06T04:58:10.141Z,12.73
2018-09-06T05:01:14.433Z,12.90
2018-09-06T05:04:18.508Z,12.23
2018-09-06T05:07:22.972Z,13.73
2018-09-06T05:10:27.274Z,12.00
2018-09-06T05:13:31.545Z,13.30
2018-09-06T05:16:35.841Z,14.00
2018-09-06T05:19:40.208Z,12.83
2018-09-06T05:22:44.701Z,12.03
2018-09-06T05:25:49.047Z,12.30
2018-09-06T05:28:55.632Z,13.77
2018-09-06T05:32:00.987Z,13.37
2018-09-06T05:35:05.368Z,13.40
2018-09-06T05:38:10.032Z,12.50
2018-09-06T05:41:14.415Z,15.03
2018-09-06T05:44:18.689Z,14.80
2018-09-06T05:47:23.449Z,13.27
2018-09-06T05:50:29.479Z,13.40
2018-09-06T05:53:34.029Z,13.17
2018-09-06T05:56:38.604Z,14.27
2018-09-06T05:59:43.038Z,14.37
2018-09-06T06:02:48.425Z,13.60
2018-09-06T06:05:52.777Z,16.40
2018-09-06T06:08:56.845Z,14.73
2018-09-06T06:12:01.096Z,15.00
2018-09-06T06:15:05.463Z,16.03
2018-09-06T06:18:09.752Z,11.97
2018-09-06T06:21:14.005Z,13.60
2018-09-06T06:24:18.158Z,14.07
2018-09-06T06:27:22.332Z,14.57
2018-09-06T06:30:26.743Z,12.47
2018-09-06T06:33:30.887Z,18.90
2018-09-06T06:36:35.129Z,14.07
2018-09-06T06:39:39.326Z,13.10
2018-09-06T06:42:43.630Z,13.10
2018-09-06T06:45:47.790Z,13.83
2018-09-06T06:48:51.672Z,13.90
2018-09-06T06:51:56.007Z,13.13
2018-09-06T06:55:00.279Z,11.90
2018-09-06T06:58:04.430Z,13.77
2018-09-06T07:01:08.581Z,12.90
2018-09-06T07:04:12.996Z,12.27
2018-09-06T07:07:17.293Z,13.60
2018-09-06T07:10:21.728Z,13.33
2018-09-06T07:13:25.869Z,13.80
2018-09-06T07:16:30.349Z,13.30
2018-09-06T07:19:34.670Z,13.83
2018-09-06T07:22:38.886Z,12.90
2018-09-06T07:25:43.366Z,13.27
2018-09-06T07:28:47.738Z,14.20
2018-09-06T07:31:52.100Z,12.83
2018-09-06T07:34:57.305Z,12.90
2018-09-06T07:38:01.414Z,13.93
2018-09-06T07:41:05.605Z,13.07
2018-09-06T07:44:09.935Z,14.07
2018-09-06T07:47:14.165Z,12.83
2018-09-06T07:50:18.366Z,14.40
2018-09-06T07:53:22.597Z,12.70
2018-09-06T07:56:27.041Z,13.50
2018-09-06T07:59:31.353Z,12.70
2018-09-06T08:02:35.641Z,11.60
2018-09-06T08:05:40.523Z,12.77
2018-09-06T08:08:44.622Z,12.43
2018-09-06T08:11:49.529Z,11.70
2018-09-06T08:14:53.800Z,11.00
2018-09-06T08:17:58.082Z,11.45
2018-09-06T08:21:02.604Z,11.10
2018-09-06T08:24:06.920Z,10.13
2018-09-06T08:27:11.385Z,10.38
2018-09-06T08:30:15.708Z,10.25
2018-09-06T08:33:19.895Z,10.30
2018-09-06T08:36:24.373Z,10.32
2018-09-06T08:39:28.574Z,10.58
2018-09-06T08:42:33.026Z,10.65
2018-09-06T08:45:37.541Z,10.85
2018-09-06T08:48:41.727Z,10.03
2018-09-06T08:51:46.217Z,9.90
2018-09-06T08:54:50.790Z,10.70
2018-09-06T08:57:55.239Z,9.65
2018-09-06T09:01:04.553Z,9.40
2018-09-06T09:04:09.095Z,10.70
2018-09-06T09:07:13.742Z,10.68
2018-09-06T09:10:18.066Z,10.88
2018-09-06T09:13:22.418Z,10.58
2018-09-06T09:16:26.892Z,9.33
2018-09-06T09:19:31.916Z,10.56
2018-09-06T09:22:36.241Z,9.00
2018-09-06T09:25:40.824Z,11.18
2018-09-06T09:28:45.076Z,10.47
2018-09-06T09:31:49.630Z,11.27
2018-09-06T09:34:55.903Z,12.80
2018-09-06T09:38:00.344Z,11.60
2018-09-06T09:41:04.954Z,10.90
2018-09-06T09:44:09.271Z,11.50
2018-09-06T09:53:20.169Z,10.70
2018-09-06T09:56:24.400Z,11.07
2018-09-06T09:59:28.875Z,10.65
2018-09-06T10:02:38.358Z,10.75
2018-09-06T10:05:45.124Z,10.32
2018-09-06T10:08:54.799Z,12.00
2018-09-06T10:11:59.030Z,11.30
2018-09-06T10:15:03.562Z,11.75
2018-09-06T10:18:08.304Z,10.35
2018-09-06T10:21:12.632Z,16.67
2018-09-06T10:24:17.066Z,10.80
2018-09-06T10:27:21.361Z,12.33
2018-09-06T10:30:26.939Z,11.27
2018-09-06T10:33:31.365Z,12.10
2018-09-06T10:36:35.254Z,13.30
2018-09-06T10:39:39.773Z,12.70
2018-09-06T10:42:44.055Z,12.47
2018-09-06T10:45:48.563Z,11.50
2018-09-06T10:48:52.517Z,11.13
2018-09-06T10:51:56.562Z,13.60
2018-09-06T10:55:00.495Z,11.33
2018-09-06T10:58:04.486Z,11.83
2018-09-06T11:01:14.033Z,12.20
2018-09-06T11:04:18.275Z,11.83
2018-09-06T11:07:22.866Z,12.00
2018-09-06T11:10:27.525Z,12.77
2018-09-06T11:13:32.411Z,10.98
2018-09-06T11:16:36.978Z,9.97
2018-09-06T11:19:41.283Z,10.10
2018-09-06T11:22:45.730Z,10.70
2018-09-06T11:25:50.096Z,11.20
2018-09-06T11:28:54.564Z,11.30
2018-09-06T11:31:59.723Z,11.27
2018-09-06T11:35:04.090Z,12.27
2018-09-06T11:38:08.363Z,12.40
2018-09-06T11:41:13.877Z,12.83
2018-09-06T11:44:18.387Z,12.83
2018-09-06T11:47:22.730Z,12.03
2018-09-06T11:50:27.066Z,15.70
2018-09-06T11:53:31.613Z,13.53
2018-09-06T11:56:35.937Z,14.53
2018-09-06T11:59:40.349Z,13.67
2018-09-06T12:02:44.576Z,14.20
2018-09-06T12:05:48.905Z,12.80
2018-09-06T12:08:53.308Z,12.20
2018-09-06T12:11:57.555Z,13.37
2018-09-06T12:15:01.976Z,12.90
2018-09-06T12:18:06.395Z,12.27
2018-09-06T12:21:11.102Z,12.80
2018-09-06T12:24:15.570Z,12.03
2018-09-06T12:27:20.582Z,11.83
2018-09-06T12:30:25.123Z,15.10
2018-09-06T12:33:29.533Z,14.50
2018-09-06T12:36:34.648Z,12.93
2018-09-06T12:39:39.013Z,12.40
2018-09-06T12:42:44.082Z,15.37
2018-09-06T12:45:48.399Z,12.70
2018-09-06T12:49:02.341Z,14.67
2018-09-06T12:52:07.308Z,14.53
2018-09-06T12:55:11.679Z,13.00
2018-09-06T12:58:16.097Z,13.87
2018-09-06T13:01:20.191Z,13.60
2018-09-06T13:04:24.405Z,15.17
2018-09-06T13:07:28.709Z,13.00
2018-09-06T13:10:32.982Z,14.50
2018-09-06T13:13:37.409Z,14.00
2018-09-06T13:16:41.824Z,14.07
2018-09-06T13:19:46.035Z,13.90
2018-09-06T13:22:50.296Z,13.50
2018-09-06T13:25:54.636Z,14.70
2018-09-06T13:28:59.132Z,12.70
2018-09-06T13:32:03.354Z,14.73
2018-09-06T13:35:07.738Z,13.27
2018-09-06T13:38:11.941Z,13.63
2018-09-06T13:41:16.884Z,15.07
2018-09-06T13:44:21.121Z,14.00
2018-09-06T13:47:25.236Z,15.20
2018-09-06T13:50:29.443Z,13.90
2018-09-06T13:53:33.769Z,13.90
2018-09-06T13:56:38.072Z,14.93
2018-09-06T13:59:42.194Z,14.90
2018-09-06T14:02:47.625Z,14.00
2018-09-06T14:05:51.794Z,13.90
2018-09-06T14:08:56.056Z,12.97
2018-09-06T14:12:00.945Z,15.60
2018-09-06T14:15:05.286Z,14.40
2018-09-06T14:18:09.684Z,14.30
2018-09-06T14:21:13.949Z,14.63
2018-09-06T14:24:18.180Z,14.40
2018-09-06T14:27:22.374Z,16.40
2018-09-06T14:30:26.985Z,15.67
2018-09-06T14:33:31.324Z,13.60
2018-09-06T14:36:35.671Z,13.47
2018-09-06T14:39:39.995Z,14.30
2018-09-06T14:42:44.476Z,13.70
2018-09-06T14:45:48.716Z,12.83
2018-09-06T14:48:53.222Z,14.40
2018-09-06T14:51:58.081Z,12.80
2018-09-06T14:55:02.287Z,13.00
2018-09-06T14:58:06.614Z,13.77
2018-09-06T15:01:10.864Z,13.57
2018-09-06T15:04:15.111Z,13.10
2018-09-06T15:07:19.557Z,12.53
2018-09-06T15:10:23.839Z,13.83
2018-09-06T15:13:28.155Z,14.03
2018-09-06T15:16:32.954Z,13.53
2018-09-06T15:19:37.258Z,13.03
2018-09-06T15:22:41.623Z,13.33
2018-09-06T15:25:45.992Z,14.67
2018-09-06T15:28:50.248Z,13.87
2018-09-06T15:31:54.866Z,14.67
2018-09-06T15:34:59.280Z,14.90
2018-09-06T15:38:03.753Z,13.03
2018-09-06T15:41:08.057Z,14.60
2018-09-06T15:44:12.381Z,14.27
2018-09-06T15:47:16.719Z,13.67
2018-09-06T15:50:21.643Z,12.60
2018-09-06T15:53:25.972Z,15.10
2018-09-06T15:56:30.070Z,14.03
2018-09-06T15:59:34.188Z,14.33
2018-09-06T16:02:38.795Z,14.03
2018-09-06T16:05:43.096Z,13.33
2018-09-06T16:08:47.409Z,12.80
2018-09-06T16:11:51.763Z,12.73
2018-09-06T16:14:56.370Z,13.53
2018-09-06T16:18:00.989Z,11.97
2018-09-06T16:21:05.195Z,14.17
2018-09-06T16:24:09.649Z,12.63
2018-09-06T16:27:13.784Z,13.97
2018-09-06T16:30:18.442Z,13.90
2018-09-06T16:33:22.532Z,13.73
2018-09-06T16:36:33.481Z,14.30
2018-09-06T16:39:37.563Z,13.63
2018-09-06T16:42:41.842Z,13.20
2018-09-06T16:45:46.109Z,13.33
2018-09-06T16:48:50.518Z,13.60
2018-09-06T16:51:54.804Z,13.30
2018-09-06T16:54:59.032Z,13.07
2018-09-06T16:58:03.422Z,13.73
2018-09-06T17:01:07.741Z,13.90
2018-09-06T17:04:11.972Z,13.13
2018-09-06T17:07:16.282Z,14.07
2018-09-06T17:10:22.530Z,15.00
2018-09-06T17:13:26.606Z,14.97
2018-09-06T17:16:31.000Z,15.03
2018-09-06T17:19:35.662Z,14.03
2018-09-06T17:22:39.875Z,13.93
2018-09-06T17:25:44.215Z,14.43
2018-09-06T17:28:48.575Z,14.60
2018-09-06T17:31:52.875Z,17.13
2018-09-06T17:34:57.115Z,15.50
2018-09-06T17:38:01.442Z,17.50
2018-09-06T17:41:06.445Z,14.97
2018-09-06T17:44:12.092Z,17.13
2018-09-06T17:47:16.620Z,14.93
2018-09-06T17:50:21.146Z,15.03
2018-09-06T17:53:25.604Z,14.17
2018-09-06T17:56:31.633Z,15.17
2018-09-06T17:59:42.149Z,15.17
2018-09-06T18:02:46.661Z,15.70
2018-09-06T18:05:52.040Z,15.23
2018-09-06T18:08:56.779Z,15.87
2018-09-06T18:12:02.197Z,15.80
2018-09-06T18:15:07.030Z,15.37
2018-09-06T18:18:11.214Z,15.33
2018-09-06T18:21:16.232Z,17.00
2018-09-06T18:24:20.703Z,16.10
2018-09-06T18:27:25.235Z,17.00
2018-09-06T18:30:29.610Z,15.60
2018-09-06T18:33:39.389Z,17.40
2018-09-06T18:36:44.912Z,17.30
2018-09-06T18:43:02.505Z,16.07
2018-09-06T18:46:08.268Z,16.60
2018-09-06T18:49:13.582Z,18.40
2018-09-06T18:52:18.249Z,17.40
2018-09-06T18:55:24.261Z,17.37
2018-09-06T18:58:29.272Z,17.73
2018-09-06T19:01:33.716Z,17.30
2018-09-06T19:04:38.908Z,16.90
2018-09-06T19:07:43.167Z,17.97
2018-09-06T19:10:47.484Z,18.10
2018-09-06T19:13:52.058Z,16.90
2018-09-06T19:16:56.621Z,18.17
2018-09-06T19:20:01.131Z,18.40
2018-09-06T19:23:05.736Z,18.27
2018-09-06T19:26:09.988Z,18.63
2018-09-06T19:29:14.395Z,17.23
2018-09-06T19:32:18.599Z,19.17
2018-09-06T19:35:23.200Z,18.13
2018-09-06T19:38:27.561Z,16.33
2018-09-06T19:41:31.738Z,16.03
2018-09-06T19:44:36.063Z,18.20
2018-09-06T19:47:40.357Z,17.70
2018-09-06T19:50:44.721Z,17.30
2018-09-06T19:53:49.078Z,17.60
2018-09-06T19:56:53.558Z,17.70
2018-09-06T19:59:57.980Z,17.97
2018-09-06T20:03:02.499Z,16.80
2018-09-06T20:06:06.776Z,17.20
2018-09-06T20:09:11.230Z,16.17
2018-09-06T20:12:15.551Z,16.57
2018-09-06T20:15:20.002Z,16.70
2018-09-06T20:18:24.443Z,15.70
2018-09-06T20:21:28.711Z,16.37
2018-09-06T20:24:32.997Z,17.70
2018-09-06T20:27:37.490Z,17.60
2018-09-06T20:30:41.906Z,16.97
2018-09-06T20:33:46.309Z,17.00
2018-09-06T20:36:50.365Z,15.23
2018-09-06T20:39:54.410Z,14.33
2018-09-06T20:42:59.113Z,16.87
2018-09-06T20:46:03.594Z,15.57
2018-09-06T20:49:08.065Z,16.70
2018-09-06T20:52:12.362Z,14.37
2018-09-06T20:55:16.684Z,15.67
2018-09-06T20:58:21.118Z,16.53
2018-09-06T21:01:25.410Z,15.43
2018-09-06T21:04:29.686Z,15.97
2018-09-06T21:07:34.385Z,17.30
2018-09-06T21:10:38.683Z,16.20
2018-09-06T21:13:42.794Z,16.50
2018-09-06T21:16:46.925Z,16.70
2018-09-06T21:19:51.240Z,15.30
2018-09-06T21:22:55.557Z,16.00
2018-09-06T21:25:59.497Z,16.00
2018-09-06T21:29:03.689Z,15.00
2018-09-06T21:32:08.082Z,16.80
2018-09-06T21:35:12.397Z,15.13
2018-09-06T21:38:16.805Z,16.20
2018-09-06T21:41:20.894Z,15.10
2018-09-06T21:44:25.246Z,16.07
2018-09-06T21:47:29.534Z,15.80
2018-09-06T21:50:33.921Z,16.33
2018-09-06T21:53:38.236Z,16.40
2018-09-06T21:56:42.550Z,15.60
2018-09-06T21:59:46.686Z,14.83
2018-09-06T22:02:56.939Z,16.27
2018-09-06T22:06:00.901Z,15.40
2018-09-06T22:09:07.235Z,17.67
2018-09-06T22:12:18.378Z,16.73
2018-09-06T22:15:22.634Z,16.43
2018-09-06T22:18:27.127Z,15.17
2018-09-06T22:21:31.284Z,15.07
2018-09-06T22:24:35.653Z,14.87
2018-09-06T22:27:39.926Z,13.70
2018-09-06T22:30:44.233Z,16.83
2018-09-06T22:33:48.642Z,15.30
2018-09-06T22:36:52.918Z,16.07
2018-09-06T22:39:57.220Z,16.10
2018-09-06T22:43:01.544Z,15.17
2018-09-06T22:46:06.197Z,15.00
2018-09-06T22:49:10.507Z,16.20
2018-09-06T22:52:14.889Z,15.27
2018-09-06T22:55:19.204Z,16.73
2018-09-06T22:58:23.513Z,15.00
2018-09-06T23:01:27.892Z,16.00
2018-09-06T23:04:32.357Z,16.93
2018-09-06T23:07:36.645Z,15.40
2018-09-06T23:10:40.999Z,16.80
2018-09-06T23:13:45.213Z,16.07
2018-09-06T23:16:49.474Z,15.93
2018-09-06T23:19:53.658Z,15.60
2018-09-06T23:22:57.901Z,15.67
2018-09-06T23:26:02.147Z,18.23
2018-09-06T23:29:06.339Z,15.83
2018-09-06T23:32:10.391Z,17.03
2018-09-06T23:35:14.529Z,16.20
2018-09-06T23:38:19.666Z,16.20
2018-09-06T23:41:24.028Z,16.10
2018-09-06T23:44:28.293Z,15.30
2018-09-06T23:47:32.675Z,14.60
2018-09-06T23:50:36.956Z,16.87
2018-09-06T23:53:41.303Z,16.87
2018-09-06T23:56:45.631Z,17.07
2018-09-06T23:59:49.934Z,16.93
